sensor_id;sensor_type;location;lat;lon;timestamp;temperature;humidity
2054;DHT22;1032;52.542;13.440;2023-04-03T00:01:26;2.40;99.90
2054;DHT22;1032;52.542;13.440;2023-04-03T00:03:53;2.60;99.90
2054;DHT22;1032;52.542;13.440;2023-04-03T00:06:20;2.50;99.90
2054;DHT22;1032;52.542;13.440;2023-04-03T00:08:48;2.40;99.90
2054;DHT22;1032;52.542;13.440;2023-04-03T00:11:16;2.40;99.90
2054;DHT22;1032;52.542;13.440;2023-04-03T00:13:44;2.50;99.90
2054;DHT22;1032;52.542;13.440;2023-04-03T00:16:11;2.40;99.90
2054;DHT22;1032;52.542;13.440;2023-04-03T00:18:39;2.50;99.90
2054;DHT22;1032;52.542;13.440;2023-04-03T00:21:06;2.40;99.90
2054;DHT22;1032;52.542;13.440;2023-04-03T00:23:34;2.30;99.90
2054;DHT22;1032;52.542;13.440;2023-04-03T00:26:02;2.40;99.90
2054;DHT22;1032;52.542;13.440;2023-04-03T00:28:29;2.00;99.90
2054;DHT22;1032;52.542;13.440;2023-04-03T00:30:55;2.50;99.90
2054;DHT22;1032;52.542;13.440;2023-04-03T00:33:22;2.20;99.90
2054;DHT22;1032;52.542;13.440;2023-04-03T00:35:50;2.50;99.90
2054;DHT22;1032;52.542;13.440;2023-04-03T00:38:17;2.30;99.90
2054;DHT22;1032;52.542;13.440;2023-04-03T00:40:46;2.20;99.90
2054;DHT22;1032;52.542;13.440;2023-04-03T00:43:17;2.20;99.90
2054;DHT22;1032;52.542;13.440;2023-04-03T00:45:46;1.90;99.90
2054;DHT22;1032;52.542;13.440;2023-04-03T00:48:16;2.40;99.90
2054;DHT22;1032;52.542;13.440;2023-04-03T00:50:44;2.40;99.90
2054;DHT22;1032;52.542;13.440;2023-04-03T00:53:13;1.80;99.90
2054;DHT22;1032;52.542;13.440;2023-04-03T00:55:41;2.40;99.90
2054;DHT22;1032;52.542;13.440;2023-04-03T00:58:09;2.30;99.90
2054;DHT22;1032;52.542;13.440;2023-04-03T01:00:39;2.30;99.90
2054;DHT22;1032;52.542;13.440;2023-04-03T01:03:06;2.10;99.90
2054;DHT22;1032;52.542;13.440;2023-04-03T01:05:35;2.10;99.90
2054;DHT22;1032;52.542;13.440;2023-04-03T01:08:02;2.00;99.90
2054;DHT22;1032;52.542;13.440;2023-04-03T01:10:28;2.30;99.90
2054;DHT22;1032;52.542;13.440;2023-04-03T01:12:56;2.30;99.90
2054;DHT22;1032;52.542;13.440;2023-04-03T01:15:25;2.00;99.90
2054;DHT22;1032;52.542;13.440;2023-04-03T01:17:56;2.00;99.90
2054;DHT22;1032;52.542;13.440;2023-04-03T01:20:50;2.20;99.90
2054;DHT22;1032;52.542;13.440;2023-04-03T01:23:30;2.30;99.90
2054;DHT22;1032;52.542;13.440;2023-04-03T01:25:59;2.00;99.90
2054;DHT22;1032;52.542;13.440;2023-04-03T01:28:28;2.20;99.90
2054;DHT22;1032;52.542;13.440;2023-04-03T01:31:00;2.10;99.90
2054;DHT22;1032;52.542;13.440;2023-04-03T01:33:33;2.10;99.90
2054;DHT22;1032;52.542;13.440;2023-04-03T01:35:59;2.10;99.90
2054;DHT22;1032;52.542;13.440;2023-04-03T01:38:27;2.10;99.90
2054;DHT22;1032;52.542;13.440;2023-04-03T01:40:54;2.10;99.90
2054;DHT22;1032;52.542;13.440;2023-04-03T01:43:21;2.10;99.90
2054;DHT22;1032;52.542;13.440;2023-04-03T01:45:48;2.00;99.90
2054;DHT22;1032;52.542;13.440;2023-04-03T01:48:16;2.10;99.90
2054;DHT22;1032;52.542;13.440;2023-04-03T01:50:44;1.90;99.90
2054;DHT22;1032;52.542;13.440;2023-04-03T01:53:11;2.00;99.90
2054;DHT22;1032;52.542;13.440;2023-04-03T01:55:38;2.00;99.90
2054;DHT22;1032;52.542;13.440;2023-04-03T01:58:05;1.90;99.90
2054;DHT22;1032;52.542;13.440;2023-04-03T02:00:32;1.80;99.90
2054;DHT22;1032;52.542;13.440;2023-04-03T02:02:59;1.90;99.90
2054;DHT22;1032;52.542;13.440;2023-04-03T02:05:26;2.00;99.90
2054;DHT22;1032;52.542;13.440;2023-04-03T02:07:54;2.10;99.90
2054;DHT22;1032;52.542;13.440;2023-04-03T02:10:20;1.90;99.90
2054;DHT22;1032;52.542;13.440;2023-04-03T02:12:47;1.80;99.90
2054;DHT22;1032;52.542;13.440;2023-04-03T02:15:14;1.70;99.90
2054;DHT22;1032;52.542;13.440;2023-04-03T02:17:40;1.80;99.90
2054;DHT22;1032;52.542;13.440;2023-04-03T02:20:08;1.60;99.90
2054;DHT22;1032;52.542;13.440;2023-04-03T02:22:35;1.70;99.90
2054;DHT22;1032;52.542;13.440;2023-04-03T02:25:03;2.00;99.90
2054;DHT22;1032;52.542;13.440;2023-04-03T02:27:30;1.90;99.90
2054;DHT22;1032;52.542;13.440;2023-04-03T02:29:57;1.30;99.90
2054;DHT22;1032;52.542;13.440;2023-04-03T02:32:24;1.80;99.90
2054;DHT22;1032;52.542;13.440;2023-04-03T02:34:51;1.80;99.90
2054;DHT22;1032;52.542;13.440;2023-04-03T02:37:17;1.80;99.90
2054;DHT22;1032;52.542;13.440;2023-04-03T02:39:46;1.70;99.90
2054;DHT22;1032;52.542;13.440;2023-04-03T02:42:14;1.10;99.90
2054;DHT22;1032;52.542;13.440;2023-04-03T02:44:41;1.60;99.90
2054;DHT22;1032;52.542;13.440;2023-04-03T02:47:09;1.10;99.90
2054;DHT22;1032;52.542;13.440;2023-04-03T02:49:35;1.20;99.90
2054;DHT22;1032;52.542;13.440;2023-04-03T02:52:02;0.90;99.90
2054;DHT22;1032;52.542;13.440;2023-04-03T02:54:28;1.70;99.90
2054;DHT22;1032;52.542;13.440;2023-04-03T02:56:59;1.30;99.90
2054;DHT22;1032;52.542;13.440;2023-04-03T02:59:27;1.50;99.90
2054;DHT22;1032;52.542;13.440;2023-04-03T03:01:53;1.50;99.90
2054;DHT22;1032;52.542;13.440;2023-04-03T03:04:21;1.30;99.90
2054;DHT22;1032;52.542;13.440;2023-04-03T03:06:47;1.70;99.90
2054;DHT22;1032;52.542;13.440;2023-04-03T03:09:14;1.60;99.90
2054;DHT22;1032;52.542;13.440;2023-04-03T03:11:41;1.70;99.90
2054;DHT22;1032;52.542;13.440;2023-04-03T03:14:08;1.60;99.90
2054;DHT22;1032;52.542;13.440;2023-04-03T03:16:36;1.50;99.90
2054;DHT22;1032;52.542;13.440;2023-04-03T03:19:03;1.20;99.90
2054;DHT22;1032;52.542;13.440;2023-04-03T03:21:30;1.40;99.90
2054;DHT22;1032;52.542;13.440;2023-04-03T03:23:56;1.30;99.90
2054;DHT22;1032;52.542;13.440;2023-04-03T03:26:23;1.20;99.90
2054;DHT22;1032;52.542;13.440;2023-04-03T03:28:50;1.30;99.90
2054;DHT22;1032;52.542;13.440;2023-04-03T03:31:17;1.30;99.90
2054;DHT22;1032;52.542;13.440;2023-04-03T03:33:45;1.40;99.90
2054;DHT22;1032;52.542;13.440;2023-04-03T03:36:12;1.30;99.90
2054;DHT22;1032;52.542;13.440;2023-04-03T03:38:38;1.30;99.90
2054;DHT22;1032;52.542;13.440;2023-04-03T03:41:05;1.30;99.90
2054;DHT22;1032;52.542;13.440;2023-04-03T03:43:34;1.40;99.90
2054;DHT22;1032;52.542;13.440;2023-04-03T03:46:03;1.40;99.90
2054;DHT22;1032;52.542;13.440;2023-04-03T03:48:29;1.40;99.90
2054;DHT22;1032;52.542;13.440;2023-04-03T03:50:57;1.10;99.90
2054;DHT22;1032;52.542;13.440;2023-04-03T03:53:28;0.90;99.90
2054;DHT22;1032;52.542;13.440;2023-04-03T03:55:59;1.30;99.90
2054;DHT22;1032;52.542;13.440;2023-04-03T03:58:28;1.00;99.90
2054;DHT22;1032;52.542;13.440;2023-04-03T04:00:54;1.00;99.90
2054;DHT22;1032;52.542;13.440;2023-04-03T04:03:21;1.00;99.90
2054;DHT22;1032;52.542;13.440;2023-04-03T04:05:50;1.30;99.90
2054;DHT22;1032;52.542;13.440;2023-04-03T04:08:18;1.10;99.90
2054;DHT22;1032;52.542;13.440;2023-04-03T04:10:45;1.00;99.90
2054;DHT22;1032;52.542;13.440;2023-04-03T04:13:14;1.10;99.90
2054;DHT22;1032;52.542;13.440;2023-04-03T04:15:42;1.00;99.90
2054;DHT22;1032;52.542;13.440;2023-04-03T04:18:09;1.20;99.90
2054;DHT22;1032;52.542;13.440;2023-04-03T04:20:36;0.80;99.90
2054;DHT22;1032;52.542;13.440;2023-04-03T04:23:03;1.00;99.90
2054;DHT22;1032;52.542;13.440;2023-04-03T04:25:32;1.10;99.90
2054;DHT22;1032;52.542;13.440;2023-04-03T04:27:59;1.10;99.90
2054;DHT22;1032;52.542;13.440;2023-04-03T04:30:25;1.10;99.90
2054;DHT22;1032;52.542;13.440;2023-04-03T04:32:53;1.00;99.90
2054;DHT22;1032;52.542;13.440;2023-04-03T04:35:20;1.00;99.90
2054;DHT22;1032;52.542;13.440;2023-04-03T04:37:50;1.00;99.90
2054;DHT22;1032;52.542;13.440;2023-04-03T04:40:17;1.00;99.90
2054;DHT22;1032;52.542;13.440;2023-04-03T04:42:45;0.60;99.90
2054;DHT22;1032;52.542;13.440;2023-04-03T04:45:12;0.90;99.90
2054;DHT22;1032;52.542;13.440;2023-04-03T04:47:42;1.00;99.90
2054;DHT22;1032;52.542;13.440;2023-04-03T04:50:10;1.20;99.90
2054;DHT22;1032;52.542;13.440;2023-04-03T04:52:37;1.20;99.90
2054;DHT22;1032;52.542;13.440;2023-04-03T04:55:07;1.00;99.90
2054;DHT22;1032;52.542;13.440;2023-04-03T04:57:33;1.20;99.90
2054;DHT22;1032;52.542;13.440;2023-04-03T05:00:03;1.00;99.90
2054;DHT22;1032;52.542;13.440;2023-04-03T05:02:30;1.10;99.90
2054;DHT22;1032;52.542;13.440;2023-04-03T05:04:57;0.90;99.90
2054;DHT22;1032;52.542;13.440;2023-04-03T05:07:26;1.20;99.90
2054;DHT22;1032;52.542;13.440;2023-04-03T05:09:53;1.10;99.90
2054;DHT22;1032;52.542;13.440;2023-04-03T05:12:20;1.00;99.90
2054;DHT22;1032;52.542;13.440;2023-04-03T05:14:53;1.00;99.90
2054;DHT22;1032;52.542;13.440;2023-04-03T05:17:21;1.10;99.90
2054;DHT22;1032;52.542;13.440;2023-04-03T05:19:52;1.30;99.90
2054;DHT22;1032;52.542;13.440;2023-04-03T05:22:20;1.10;99.90
2054;DHT22;1032;52.542;13.440;2023-04-03T05:24:48;0.90;99.90
2054;DHT22;1032;52.542;13.440;2023-04-03T05:27:16;1.30;99.90
2054;DHT22;1032;52.542;13.440;2023-04-03T05:29:47;1.30;99.90
2054;DHT22;1032;52.542;13.440;2023-04-03T05:32:20;1.40;99.90
2054;DHT22;1032;52.542;13.440;2023-04-03T05:34:51;1.30;99.90
2054;DHT22;1032;52.542;13.440;2023-04-03T05:37:18;1.20;99.90
2054;DHT22;1032;52.542;13.440;2023-04-03T05:39:46;1.30;99.90
2054;DHT22;1032;52.542;13.440;2023-04-03T05:42:13;1.40;99.90
2054;DHT22;1032;52.542;13.440;2023-04-03T05:44:41;1.10;99.90
2054;DHT22;1032;52.542;13.440;2023-04-03T05:47:08;0.90;99.90
2054;DHT22;1032;52.542;13.440;2023-04-03T05:49:37;1.30;99.90
2054;DHT22;1032;52.542;13.440;2023-04-03T05:52:06;1.80;99.90
2054;DHT22;1032;52.542;13.440;2023-04-03T05:54:33;1.90;99.90
2054;DHT22;1032;52.542;13.440;2023-04-03T05:57:06;2.10;99.90
2054;DHT22;1032;52.542;13.440;2023-04-03T05:59:32;2.00;99.90
2054;DHT22;1032;52.542;13.440;2023-04-03T06:01:59;2.10;99.90
2054;DHT22;1032;52.542;13.440;2023-04-03T06:04:26;1.60;99.90
2054;DHT22;1032;52.542;13.440;2023-04-03T06:06:56;2.10;99.90
2054;DHT22;1032;52.542;13.440;2023-04-03T06:09:26;3.00;99.90
2054;DHT22;1032;52.542;13.440;2023-04-03T06:11:54;2.60;99.90
2054;DHT22;1032;52.542;13.440;2023-04-03T06:14:22;2.50;99.90
2054;DHT22;1032;52.542;13.440;2023-04-03T06:16:49;2.60;99.90
2054;DHT22;1032;52.542;13.440;2023-04-03T06:19:16;2.60;99.90
2054;DHT22;1032;52.542;13.440;2023-04-03T06:21:47;2.20;99.90
2054;DHT22;1032;52.542;13.440;2023-04-03T06:24:16;2.90;99.90
2054;DHT22;1032;52.542;13.440;2023-04-03T06:26:43;2.80;99.90
2054;DHT22;1032;52.542;13.440;2023-04-03T06:29:11;2.70;99.90
2054;DHT22;1032;52.542;13.440;2023-04-03T06:31:37;2.80;99.90
2054;DHT22;1032;52.542;13.440;2023-04-03T06:34:04;3.10;99.90
2054;DHT22;1032;52.542;13.440;2023-04-03T06:36:31;3.10;99.90
2054;DHT22;1032;52.542;13.440;2023-04-03T06:38:58;3.10;99.90
2054;DHT22;1032;52.542;13.440;2023-04-03T06:41:26;3.00;99.90
2054;DHT22;1032;52.542;13.440;2023-04-03T06:43:53;3.10;99.90
2054;DHT22;1032;52.542;13.440;2023-04-03T06:46:22;3.20;99.90
2054;DHT22;1032;52.542;13.440;2023-04-03T06:48:49;3.40;99.90
2054;DHT22;1032;52.542;13.440;2023-04-03T06:51:19;3.30;99.90
2054;DHT22;1032;52.542;13.440;2023-04-03T06:53:46;3.50;99.90
2054;DHT22;1032;52.542;13.440;2023-04-03T06:56:13;3.30;99.90
2054;DHT22;1032;52.542;13.440;2023-04-03T06:58:42;3.00;99.90
2054;DHT22;1032;52.542;13.440;2023-04-03T07:01:10;3.80;99.90
2054;DHT22;1032;52.542;13.440;2023-04-03T07:03:37;3.60;99.90
2054;DHT22;1032;52.542;13.440;2023-04-03T07:06:05;3.70;99.90
2054;DHT22;1032;52.542;13.440;2023-04-03T07:08:32;3.70;99.90
2054;DHT22;1032;52.542;13.440;2023-04-03T07:10:59;3.70;99.90
2054;DHT22;1032;52.542;13.440;2023-04-03T07:13:26;3.80;99.80
2054;DHT22;1032;52.542;13.440;2023-04-03T07:15:54;3.80;99.00
2054;DHT22;1032;52.542;13.440;2023-04-03T07:18:22;3.70;99.20
2054;DHT22;1032;52.542;13.440;2023-04-03T07:20:49;3.80;98.80
2054;DHT22;1032;52.542;13.440;2023-04-03T07:23:16;4.10;98.40
2054;DHT22;1032;52.542;13.440;2023-04-03T07:25:43;4.30;98.10
2054;DHT22;1032;52.542;13.440;2023-04-03T07:28:10;4.40;97.60
2054;DHT22;1032;52.542;13.440;2023-04-03T07:30:42;4.50;97.10
2054;DHT22;1032;52.542;13.440;2023-04-03T07:33:10;4.40;96.70
2054;DHT22;1032;52.542;13.440;2023-04-03T07:35:37;4.60;96.10
2054;DHT22;1032;52.542;13.440;2023-04-03T07:38:04;4.40;95.90
2054;DHT22;1032;52.542;13.440;2023-04-03T07:40:31;4.50;95.80
2054;DHT22;1032;52.542;13.440;2023-04-03T07:42:57;4.50;96.40
2054;DHT22;1032;52.542;13.440;2023-04-03T07:45:25;4.50;96.40
2054;DHT22;1032;52.542;13.440;2023-04-03T07:47:52;4.40;95.80
2054;DHT22;1032;52.542;13.440;2023-04-03T07:50:22;4.30;95.10
2054;DHT22;1032;52.542;13.440;2023-04-03T07:52:49;4.40;95.50
2054;DHT22;1032;52.542;13.440;2023-04-03T07:55:18;4.60;95.70
2054;DHT22;1032;52.542;13.440;2023-04-03T07:57:44;4.60;95.00
2054;DHT22;1032;52.542;13.440;2023-04-03T08:00:12;4.70;94.40
2054;DHT22;1032;52.542;13.440;2023-04-03T08:02:40;4.80;93.80
2054;DHT22;1032;52.542;13.440;2023-04-03T08:05:07;5.10;93.90
2054;DHT22;1032;52.542;13.440;2023-04-03T08:07:36;5.20;94.00
2054;DHT22;1032;52.542;13.440;2023-04-03T08:10:03;4.70;93.50
2054;DHT22;1032;52.542;13.440;2023-04-03T08:12:30;5.20;92.90
2054;DHT22;1032;52.542;13.440;2023-04-03T08:14:57;4.50;92.70
2054;DHT22;1032;52.542;13.440;2023-04-03T08:17:25;5.00;93.50
2054;DHT22;1032;52.542;13.440;2023-04-03T08:19:52;4.90;92.70
2054;DHT22;1032;52.542;13.440;2023-04-03T08:22:18;4.80;92.60
2054;DHT22;1032;52.542;13.440;2023-04-03T08:24:47;5.00;92.90
2054;DHT22;1032;52.542;13.440;2023-04-03T08:27:13;5.10;92.20
2054;DHT22;1032;52.542;13.440;2023-04-03T08:29:40;5.10;92.00
2054;DHT22;1032;52.542;13.440;2023-04-03T08:32:07;5.10;92.00
2054;DHT22;1032;52.542;13.440;2023-04-03T08:34:33;5.20;91.80
2054;DHT22;1032;52.542;13.440;2023-04-03T08:37:02;4.90;91.60
2054;DHT22;1032;52.542;13.440;2023-04-03T08:39:28;5.30;91.40
2054;DHT22;1032;52.542;13.440;2023-04-03T08:41:59;5.30;90.90
2054;DHT22;1032;52.542;13.440;2023-04-03T08:44:38;5.00;90.60
2054;DHT22;1032;52.542;13.440;2023-04-03T08:47:13;5.10;90.40
2054;DHT22;1032;52.542;13.440;2023-04-03T08:49:46;5.20;90.40
2054;DHT22;1032;52.542;13.440;2023-04-03T08:52:18;5.40;90.40
2054;DHT22;1032;52.542;13.440;2023-04-03T08:54:49;4.70;90.20
2054;DHT22;1032;52.542;13.440;2023-04-03T08:57:25;5.30;90.20
2054;DHT22;1032;52.542;13.440;2023-04-03T08:59:52;5.20;90.20
2054;DHT22;1032;52.542;13.440;2023-04-03T09:02:26;5.40;90.10
2054;DHT22;1032;52.542;13.440;2023-04-03T09:04:55;5.50;89.60
2054;DHT22;1032;52.542;13.440;2023-04-03T09:07:30;5.80;88.90
2054;DHT22;1032;52.542;13.440;2023-04-03T09:10:00;5.50;87.80
2054;DHT22;1032;52.542;13.440;2023-04-03T09:12:34;5.70;86.60
2054;DHT22;1032;52.542;13.440;2023-04-03T09:15:10;5.90;84.20
2054;DHT22;1032;52.542;13.440;2023-04-03T09:17:45;6.40;83.80
2054;DHT22;1032;52.542;13.440;2023-04-03T09:20:22;6.50;81.90
2054;DHT22;1032;52.542;13.440;2023-04-03T09:22:51;6.10;81.00
2054;DHT22;1032;52.542;13.440;2023-04-03T09:25:22;6.60;80.50
2054;DHT22;1032;52.542;13.440;2023-04-03T09:27:50;6.30;80.30
2054;DHT22;1032;52.542;13.440;2023-04-03T09:30:20;6.40;80.90
2054;DHT22;1032;52.542;13.440;2023-04-03T09:32:49;5.70;79.80
2054;DHT22;1032;52.542;13.440;2023-04-03T09:35:20;6.70;79.30
2054;DHT22;1032;52.542;13.440;2023-04-03T09:37:48;6.30;78.70
2054;DHT22;1032;52.542;13.440;2023-04-03T09:40:33;6.50;78.20
2054;DHT22;1032;52.542;13.440;2023-04-03T09:43:19;6.50;77.10
2054;DHT22;1032;52.542;13.440;2023-04-03T09:45:47;6.30;78.40
2054;DHT22;1032;52.542;13.440;2023-04-03T09:48:17;6.00;78.80
2054;DHT22;1032;52.542;13.440;2023-04-03T09:50:56;6.10;79.40
2054;DHT22;1032;52.542;13.440;2023-04-03T09:53:31;6.10;79.80
2054;DHT22;1032;52.542;13.440;2023-04-03T09:55:58;6.40;80.60
2054;DHT22;1032;52.542;13.440;2023-04-03T09:58:29;6.40;80.20
2054;DHT22;1032;52.542;13.440;2023-04-03T10:00:57;6.00;79.80
2054;DHT22;1032;52.542;13.440;2023-04-03T10:03:28;6.00;79.80
2054;DHT22;1032;52.542;13.440;2023-04-03T10:05:56;6.50;80.90
2054;DHT22;1032;52.542;13.440;2023-04-03T10:08:26;6.30;78.60
2054;DHT22;1032;52.542;13.440;2023-04-03T10:11:12;6.40;79.30
2054;DHT22;1032;52.542;13.440;2023-04-03T10:13:52;6.40;77.70
2054;DHT22;1032;52.542;13.440;2023-04-03T10:16:24;6.50;78.50
2054;DHT22;1032;52.542;13.440;2023-04-03T10:18:59;6.80;79.40
2054;DHT22;1032;52.542;13.440;2023-04-03T10:21:34;6.80;79.10
2054;DHT22;1032;52.542;13.440;2023-04-03T10:24:11;6.40;77.10
2054;DHT22;1032;52.542;13.440;2023-04-03T10:26:45;6.20;77.00
2054;DHT22;1032;52.542;13.440;2023-04-03T10:29:24;7.00;76.00
2054;DHT22;1032;52.542;13.440;2023-04-03T10:31:59;6.80;74.60
2054;DHT22;1032;52.542;13.440;2023-04-03T10:34:31;7.10;73.50
2054;DHT22;1032;52.542;13.440;2023-04-03T10:37:06;6.90;72.80
2054;DHT22;1032;52.542;13.440;2023-04-03T10:39:44;7.00;72.50
2054;DHT22;1032;52.542;13.440;2023-04-03T10:42:18;7.00;71.50
2054;DHT22;1032;52.542;13.440;2023-04-03T10:45:00;7.30;72.30
2054;DHT22;1032;52.542;13.440;2023-04-03T10:47:31;7.20;72.30
2054;DHT22;1032;52.542;13.440;2023-04-03T10:50:22;7.50;73.00
2054;DHT22;1032;52.542;13.440;2023-04-03T10:52:56;7.40;72.10
2054;DHT22;1032;52.542;13.440;2023-04-03T10:55:33;7.80;72.20
2054;DHT22;1032;52.542;13.440;2023-04-03T10:58:02;7.70;72.20
2054;DHT22;1032;52.542;13.440;2023-04-03T11:00:36;7.70;71.90
2054;DHT22;1032;52.542;13.440;2023-04-03T11:03:07;7.80;70.40
2054;DHT22;1032;52.542;13.440;2023-04-03T11:05:39;7.40;70.60
2054;DHT22;1032;52.542;13.440;2023-04-03T11:08:12;6.90;70.80
2054;DHT22;1032;52.542;13.440;2023-04-03T11:10:42;7.60;70.80
2054;DHT22;1032;52.542;13.440;2023-04-03T11:13:13;6.80;70.80
2054;DHT22;1032;52.542;13.440;2023-04-03T11:15:42;7.10;71.70
2054;DHT22;1032;52.542;13.440;2023-04-03T11:18:12;7.60;71.80
2054;DHT22;1032;52.542;13.440;2023-04-03T11:20:53;7.70;71.60
2054;DHT22;1032;52.542;13.440;2023-04-03T11:23:25;6.90;71.10
2054;DHT22;1032;52.542;13.440;2023-04-03T11:25:54;7.50;72.30
2054;DHT22;1032;52.542;13.440;2023-04-03T11:28:22;6.70;72.10
2054;DHT22;1032;52.542;13.440;2023-04-03T11:30:56;7.50;72.80
2054;DHT22;1032;52.542;13.440;2023-04-03T11:33:37;7.50;73.20
2054;DHT22;1032;52.542;13.440;2023-04-03T11:36:10;7.50;72.90
2054;DHT22;1032;52.542;13.440;2023-04-03T11:38:41;7.40;73.30
2054;DHT22;1032;52.542;13.440;2023-04-03T11:41:09;7.70;73.60
2054;DHT22;1032;52.542;13.440;2023-04-03T11:43:41;8.00;73.20
2054;DHT22;1032;52.542;13.440;2023-04-03T11:46:09;7.70;72.40
2054;DHT22;1032;52.542;13.440;2023-04-03T11:48:49;7.50;72.30
2054;DHT22;1032;52.542;13.440;2023-04-03T11:54:46;8.00;73.20
2054;DHT22;1032;52.542;13.440;2023-04-03T11:58:02;7.80;72.50
2054;DHT22;1032;52.542;13.440;2023-04-03T12:01:01;7.60;73.30
2054;DHT22;1032;52.542;13.440;2023-04-03T12:09:28;7.50;73.20
2054;DHT22;1032;52.542;13.440;2023-04-03T12:11:56;7.20;72.70
2054;DHT22;1032;52.542;13.440;2023-04-03T12:14:24;7.10;72.90
2054;DHT22;1032;52.542;13.440;2023-04-03T12:16:53;7.50;72.30
2054;DHT22;1032;52.542;13.440;2023-04-03T12:19:35;7.60;72.70
2054;DHT22;1032;52.542;13.440;2023-04-03T12:22:15;7.50;73.50
2054;DHT22;1032;52.542;13.440;2023-04-03T12:24:44;7.30;73.40
2054;DHT22;1032;52.542;13.440;2023-04-03T12:27:38;6.90;74.00
2054;DHT22;1032;52.542;13.440;2023-04-03T12:30:15;7.20;74.90
2054;DHT22;1032;52.542;13.440;2023-04-03T12:32:56;7.40;75.00
2054;DHT22;1032;52.542;13.440;2023-04-03T12:35:30;7.20;73.70
2054;DHT22;1032;52.542;13.440;2023-04-03T12:38:17;7.30;73.80
2054;DHT22;1032;52.542;13.440;2023-04-03T12:40:53;7.50;72.70
2054;DHT22;1032;52.542;13.440;2023-04-03T12:43:37;7.50;72.60
2054;DHT22;1032;52.542;13.440;2023-04-03T12:46:13;7.80;70.80
2054;DHT22;1032;52.542;13.440;2023-04-03T12:48:48;7.90;70.40
2054;DHT22;1032;52.542;13.440;2023-04-03T12:51:21;7.80;70.60
2054;DHT22;1032;52.542;13.440;2023-04-03T12:53:49;7.80;71.10
2054;DHT22;1032;52.542;13.440;2023-04-03T12:56:25;7.20;70.70
2054;DHT22;1032;52.542;13.440;2023-04-03T12:58:54;7.70;70.40
2054;DHT22;1032;52.542;13.440;2023-04-03T13:01:24;7.80;71.10
2054;DHT22;1032;52.542;13.440;2023-04-03T13:03:54;7.50;70.50
2054;DHT22;1032;52.542;13.440;2023-04-03T13:06:26;7.60;70.30
2054;DHT22;1032;52.542;13.440;2023-04-03T13:08:55;7.60;70.40
2054;DHT22;1032;52.542;13.440;2023-04-03T13:11:24;7.50;71.50
2054;DHT22;1032;52.542;13.440;2023-04-03T13:13:56;7.40;71.60
2054;DHT22;1032;52.542;13.440;2023-04-03T13:16:22;7.40;71.90
2054;DHT22;1032;52.542;13.440;2023-04-03T13:18:51;7.40;72.40
2054;DHT22;1032;52.542;13.440;2023-04-03T13:21:20;7.30;72.50
2054;DHT22;1032;52.542;13.440;2023-04-03T13:23:52;7.60;72.70
2054;DHT22;1032;52.542;13.440;2023-04-03T13:26:21;7.40;72.80
2054;DHT22;1032;52.542;13.440;2023-04-03T13:28:49;7.40;73.00
2054;DHT22;1032;52.542;13.440;2023-04-03T13:31:20;7.70;73.70
2054;DHT22;1032;52.542;13.440;2023-04-03T13:33:55;7.70;73.30
2054;DHT22;1032;52.542;13.440;2023-04-03T13:36:24;7.70;72.70
2054;DHT22;1032;52.542;13.440;2023-04-03T13:39:03;7.50;71.60
2054;DHT22;1032;52.542;13.440;2023-04-03T13:41:32;8.10;71.60
2054;DHT22;1032;52.542;13.440;2023-04-03T13:44:14;7.50;71.60
2054;DHT22;1032;52.542;13.440;2023-04-03T13:46:41;7.30;72.20
2054;DHT22;1032;52.542;13.440;2023-04-03T13:49:18;7.50;72.50
2054;DHT22;1032;52.542;13.440;2023-04-03T13:51:45;7.50;73.60
2054;DHT22;1032;52.542;13.440;2023-04-03T13:54:19;7.50;74.10
2054;DHT22;1032;52.542;13.440;2023-04-03T13:56:53;7.30;74.10
2054;DHT22;1032;52.542;13.440;2023-04-03T13:59:23;7.30;74.60
2054;DHT22;1032;52.542;13.440;2023-04-03T14:01:53;7.30;74.80
2054;DHT22;1032;52.542;13.440;2023-04-03T14:04:23;7.20;75.10
2054;DHT22;1032;52.542;13.440;2023-04-03T14:06:51;7.30;75.30
2054;DHT22;1032;52.542;13.440;2023-04-03T14:09:21;6.90;74.80
2054;DHT22;1032;52.542;13.440;2023-04-03T14:11:49;7.20;75.70
2054;DHT22;1032;52.542;13.440;2023-04-03T14:14:18;7.00;74.90
2054;DHT22;1032;52.542;13.440;2023-04-03T14:16:50;7.30;75.90
2054;DHT22;1032;52.542;13.440;2023-04-03T14:19:21;6.70;75.10
2054;DHT22;1032;52.542;13.440;2023-04-03T14:21:48;7.30;74.70
2054;DHT22;1032;52.542;13.440;2023-04-03T14:24:16;7.20;75.10
2054;DHT22;1032;52.542;13.440;2023-04-03T14:26:45;7.10;75.30
2054;DHT22;1032;52.542;13.440;2023-04-03T14:29:13;7.20;75.90
2054;DHT22;1032;52.542;13.440;2023-04-03T14:31:41;7.20;75.40
2054;DHT22;1032;52.542;13.440;2023-04-03T14:34:10;7.30;76.10
2054;DHT22;1032;52.542;13.440;2023-04-03T14:36:37;7.50;76.10
2054;DHT22;1032;52.542;13.440;2023-04-03T14:39:06;7.40;75.70
2054;DHT22;1032;52.542;13.440;2023-04-03T14:41:34;7.50;76.00
2054;DHT22;1032;52.542;13.440;2023-04-03T14:44:02;6.80;74.80
2054;DHT22;1032;52.542;13.440;2023-04-03T14:46:32;7.20;74.70
2054;DHT22;1032;52.542;13.440;2023-04-03T14:48:59;7.00;75.50
2054;DHT22;1032;52.542;13.440;2023-04-03T14:51:26;7.10;76.20
2054;DHT22;1032;52.542;13.440;2023-04-03T14:53:53;7.10;76.50
2054;DHT22;1032;52.542;13.440;2023-04-03T14:56:23;7.10;77.10
2054;DHT22;1032;52.542;13.440;2023-04-03T14:58:54;7.10;77.80
2054;DHT22;1032;52.542;13.440;2023-04-03T15:01:23;7.00;78.30
2054;DHT22;1032;52.542;13.440;2023-04-03T15:03:50;6.50;78.60
2054;DHT22;1032;52.542;13.440;2023-04-03T15:06:17;6.70;79.40
2054;DHT22;1032;52.542;13.440;2023-04-03T15:08:44;6.90;80.10
2054;DHT22;1032;52.542;13.440;2023-04-03T15:11:12;6.80;80.20
2054;DHT22;1032;52.542;13.440;2023-04-03T15:13:40;6.60;80.30
2054;DHT22;1032;52.542;13.440;2023-04-03T15:16:14;7.20;81.30
2054;DHT22;1032;52.542;13.440;2023-04-03T15:18:43;6.90;81.10
2054;DHT22;1032;52.542;13.440;2023-04-03T15:21:11;6.90;81.50
2054;DHT22;1032;52.542;13.440;2023-04-03T15:23:37;6.70;81.40
2054;DHT22;1032;52.542;13.440;2023-04-03T15:26:04;6.70;82.10
2054;DHT22;1032;52.542;13.440;2023-04-03T15:28:34;6.70;82.20
2054;DHT22;1032;52.542;13.440;2023-04-03T15:31:01;6.80;83.50
2054;DHT22;1032;52.542;13.440;2023-04-03T15:33:28;6.60;83.60
2054;DHT22;1032;52.542;13.440;2023-04-03T15:35:57;6.40;83.90
2054;DHT22;1032;52.542;13.440;2023-04-03T15:38:24;6.70;84.10
2054;DHT22;1032;52.542;13.440;2023-04-03T15:40:51;6.50;83.80
2054;DHT22;1032;52.542;13.440;2023-04-03T15:43:17;6.40;83.70
2054;DHT22;1032;52.542;13.440;2023-04-03T15:45:44;6.50;83.80
2054;DHT22;1032;52.542;13.440;2023-04-03T15:48:11;6.30;83.60
2054;DHT22;1032;52.542;13.440;2023-04-03T15:50:39;6.30;83.20
2054;DHT22;1032;52.542;13.440;2023-04-03T15:53:07;6.20;83.20
2054;DHT22;1032;52.542;13.440;2023-04-03T15:55:35;6.30;83.40
2054;DHT22;1032;52.542;13.440;2023-04-03T15:58:02;6.40;83.60
2054;DHT22;1032;52.542;13.440;2023-04-03T16:00:30;5.50;82.60
2054;DHT22;1032;52.542;13.440;2023-04-03T16:03:00;6.40;83.70
2054;DHT22;1032;52.542;13.440;2023-04-03T16:05:29;5.70;82.90
2054;DHT22;1032;52.542;13.440;2023-04-03T16:07:57;6.00;83.50
2054;DHT22;1032;52.542;13.440;2023-04-03T16:10:26;6.30;84.20
2054;DHT22;1032;52.542;13.440;2023-04-03T16:12:52;6.20;84.20
2054;DHT22;1032;52.542;13.440;2023-04-03T16:15:19;6.20;84.40
2054;DHT22;1032;52.542;13.440;2023-04-03T16:17:46;5.90;84.20
2054;DHT22;1032;52.542;13.440;2023-04-03T16:20:13;6.50;84.70
2054;DHT22;1032;52.542;13.440;2023-04-03T16:22:40;6.30;84.30
2054;DHT22;1032;52.542;13.440;2023-04-03T16:25:08;6.10;83.10
2054;DHT22;1032;52.542;13.440;2023-04-03T16:27:36;6.50;83.30